• Join FlightAware (Why Join?)
  • Login
  • US Flag 
04:59AM EST


 

Airport Tracker/Info


-or-


 

Live Flight TrackerFlight Track Log ✈ N28KP ✈ 06-Nov-2013 ✈ KSDY - KHLN

Flight Track Log - Related Links

Times and Time Zones

All times are in EST time to prevent confusion due to time zone crossing. See the N28KP flight status page for this flight to view local times or setup timezone preferences in your user account.

Time Position Orientation Groundspeed Altitude Reporting Facility
EST Latitude Longitude Course Direction KTS MPH feet Rate Location/Type
04:28PM 47.6897 -104.3714 260° West 143 165 8,200  Level Salt Lake Center
04:29PM 47.6825 -104.4336 260° West 149 171 9,900 1,800 Climbing Salt Lake Center
04:30PM 47.6744 -104.5103 261° West 153 176 11,900 1,680 Climbing Salt Lake Center
04:31PM 47.6647 -104.5742 257° West 156 180 13,400 1,260 Climbing Salt Lake Center
04:32PM 47.6558 -104.6392 259° West 159 183 14,500 1,200 Climbing Salt Lake Center
04:33PM 47.6489 -104.7058 261° West 162 186 15,900 720 Climbing Salt Lake Center
04:34PM 47.6414 -104.7858 262° West 178 205 16,000  Climbing Salt Lake Center
04:35PM 47.6306 -104.8758 260° West 201 231 16,000  Level Salt Lake Center
04:36PM 47.6214 -104.9686 262° West 216 249 16,000  Level Salt Lake Center
04:37PM 47.6133 -105.0761 264° West 220 253 16,000  Level Salt Lake Center
04:38PM 47.6067 -105.1675 264° West 222 255 16,000  Level Salt Lake Center
04:39PM 47.5967 -105.2594 261° West 224 258 16,000  Level Salt Lake Center
04:40PM 47.5836 -105.3469 258° West 222 255 16,000  Level Salt Lake Center
04:41PM 47.5722 -105.4381 260° West 223 257 16,000  Level Salt Lake Center
04:42PM 47.5617 -105.5261 260° West 221 254 16,000  Level Salt Lake Center
04:44PM 47.5511 -105.6172 260° West 223 257 16,000  Level Salt Lake Center
04:45PM 47.5367 -105.7267 259° West 225 259 16,000  Level Salt Lake Center
04:46PM 47.5247 -105.8172 259° West 225 259 16,000  Level Salt Lake Center
04:47PM 47.5122 -105.9078 258° West 225 259 16,000  Level Salt Lake Center
04:48PM 47.5008 -105.9986 260° West 225 259 16,000  Level Salt Lake Center
04:49PM 47.4889 -106.0872 259° West 224 258 16,000  Level Salt Lake Center
04:50PM 47.4794 -106.1767 261° West 222 255 16,000  Level Salt Lake Center
04:51PM 47.4678 -106.2675 259° West 223 257 16,000  Level Salt Lake Center
04:52PM 47.4550 -106.3756 260° West 224 258 16,000  Level Salt Lake Center
04:53PM 47.4456 -106.4644 261° West 221 254 16,000  Level Salt Lake Center
04:54PM 47.4347 -106.5553 260° West 223 257 16,000  Level Salt Lake Center
04:55PM 47.4219 -106.6458 258° West 224 258 16,000  Level Salt Lake Center
04:56PM 47.4097 -106.7361 259° West 225 259 16,000  Level Salt Lake Center
04:57PM 47.3964 -106.8261 258° West 225 259 16,000  Level Salt Lake Center
04:58PM 47.3839 -106.9164 258° West 225 259 16,000  Level Salt Lake Center
04:59PM 47.3686 -107.0281 259° West 229 264 16,000  Level Salt Lake Center
05:00PM 47.3569 -107.1181 259° West 228 262 16,000  Level Salt Lake Center
05:01PM 47.3444 -107.2111 259° West 229 264 16,000  Level Salt Lake Center
05:02PM 47.3322 -107.3047 259° West 231 266 16,000  Level Salt Lake Center
05:03PM 47.3172 -107.4103 258° West 231 266 16,000  Level Salt Lake Center
05:05PM 47.3003 -107.5371 259° West  Level FlightAware Approximate
05:07PM 47.2822 -107.7258 259° West 227 261 16,000  Level Salt Lake Center
05:08PM 47.2689 -107.8194 258° West 230 265 15,900 -60 Descending Salt Lake Center
05:09PM 47.2558 -107.9097 258° West 230 265 15,900  Level Salt Lake Center
05:10PM 47.2428 -108.0006 258° West 229 264 15,900  Level Salt Lake Center
05:11PM 47.2308 -108.0911 259° West 229 264 15,900  Level Salt Lake Center
05:12PM 47.2159 -108.1553 259° West  Level FlightAware Approximate
05:12PM 47.2164 -108.1978 259° West 226 260 15,900  Level Salt Lake Center
05:13PM 47.2039 -108.2894 259° West 226 260 15,900  Level Salt Lake Center
05:14PM 47.1897 -108.3806 257° West 227 261 15,900  Level Salt Lake Center
05:15PM 47.1772 -108.4736 259° West 229 264 15,900  Level Salt Lake Center
05:16PM 47.1653 -108.5656 259° West 230 265 15,900  Level Salt Lake Center
05:17PM 47.1528 -108.6544 258° West 228 262 15,900  Level Salt Lake Center
05:18PM 47.1372 -108.7403 255° West 226 260 15,900  Level Salt Lake Center
05:19PM 47.1156 -108.8447 253° West 224 258 15,900  Level Salt Lake Center
05:20PM 47.0956 -108.9342 252° West 225 259 15,900  Level Salt Lake Center
05:21PM 47.0750 -109.0242 251° West 228 262 15,900  Level Salt Lake Center
05:22PM 47.0544 -109.1153 252° West 231 266 15,900  Level Salt Lake Center
05:23PM 47.0347 -109.2069 253° West 233 268 15,900  Level Salt Lake Center
05:24PM 47.0133 -109.2947 250° West 233 268 15,900  Level Salt Lake Center
05:25PM 46.9889 -109.3989 251° West 231 266 15,900  Level Salt Lake Center
05:26PM 46.9706 -109.4761 251° West 226 260 15,900  Level Salt Lake Center
05:27PM 46.9519 -109.5600 252° West 221 254 15,900  Level Salt Lake Center
05:28PM 46.9344 -109.6461 253° West 221 254 15,900  Level Salt Lake Center
05:29PM 46.9117 -109.7492 252° West 222 255 16,000  Climbing Salt Lake Center
05:30PM 46.8922 -109.8364 252° West 223 257 16,000 -60 Level Salt Lake Center
05:31PM 46.8731 -109.9222 252° West 223 257 15,900 -60 Descending Salt Lake Center
05:32PM 46.8564 -110.0117 255° West 218 251 15,900  Level Salt Lake Center
05:33PM 46.8400 -110.0903 253° West 218 251 15,900  Level Salt Lake Center
05:34PM 46.8214 -110.1736 252° West 217 250 15,900  Level Salt Lake Center
05:35PM 46.7978 -110.2758 251° West 219 252 16,000  Climbing Salt Lake Center
05:37PM 46.7767 -110.3583 250° West 219 252 16,000  Level Salt Lake Center
05:38PM 46.7550 -110.4419 249° West 220 253 16,000 -180 Level Salt Lake Center
05:39PM 46.7344 -110.5278 251° West 221 254 15,700 -480 Descending Salt Lake Center
05:40PM 46.7150 -110.6172 252° West 225 259 15,100 -660 Descending Salt Lake Center
05:41PM 46.6933 -110.7075 251° West 229 264 14,400 -540 Descending Salt Lake Center
05:42PM 46.6719 -110.8128 254° West 230 265 14,000 -240 Descending Salt Lake Center
05:43PM 46.6542 -110.8944 252° West 224 258 14,000 60 Level Salt Lake Center
05:44PM 46.6350 -110.9728 250° West 217 250 14,200 180 Climbing Salt Lake Center
05:46PM 46.5884 -111.1175 245° Southwest  Level FlightAware Approximate
05:53PM 46.5587 -111.7272 282° West  Level FlightAware Approximate
05:54PM 46.5714 -111.8157 282° West  Level FlightAware Approximate
05:55PM 46.5846 -111.9039 296° West  Level FlightAware Approximate
05:56PM 46.6000 -111.9667 270° West  Level FlightAware Approximate
05:57PM 46.6068 -111.9827 270° West  Level Estimated
05:58PM 46.6068 -111.9827 270° West  Level Estimated
05:59PM 46.6068 -111.9827 270° West  Level Estimated
06:00PM 46.6068 -111.9827 270° West  Level Estimated
06:01PM 46.6068 -111.9827 270° West  Level Estimated